Time;durP1;ratioP1;P1;durP2;ratioP2;P2;SDS_P1;SDS_P2;PMS_P1;PMS_P2;Temp;Humidity;BMP_temperature;BMP_pressure;BME280_temperature;BME280_humidity;BME280_pressure;Samples;Min_cycle;Max_cycle;Signal;HPM_P1;HPM_P2
2021/09/29 13:05:52;;;;;;;7.10;4.00;;;16.30;43.10;;;;;;4295660;32;20417;-85
2021/09/29 13:08:19;;;;;;;11.13;4.47;;;15.90;26.70;;;;;;5015520;28;20035;-86
2021/09/29 13:10:46;;;;;;;5.35;4.25;;;15.20;26.70;;;;;;4982686;28;20427;-84
2021/09/29 13:13:13;;;;;;;5.07;4.25;;;15.20;26.90;;;;;;4950738;28;20041;-84
2021/09/29 13:15:45;;;;;;;6.82;4.00;;;15.30;26.90;;;;;;4999108;28;20048;-87
2021/09/29 13:18:22;;;;;;;5.32;4.13;;;15.30;26.90;;;;;;5016914;28;20102;-84
2021/09/29 13:20:56;;;;;;;4.85;3.83;;;15.40;26.90;;;;;;5020945;28;20067;-86
2021/09/29 13:23:29;;;;;;;5.30;4.13;;;15.40;26.80;;;;;;5010984;28;20052;-86
2021/09/29 13:26:08;;;;;;;4.80;4.30;;;15.50;26.70;;;;;;4979234;28;20037;-85
2021/09/29 13:36:50;;;;;;;5.65;3.88;;;15.50;26.90;;;;;;5016825;28;20057;-86
2021/09/29 13:39:20;;;;;;;5.70;4.75;;;15.50;27.10;;;;;;4970074;28;20044;-88
2021/09/29 13:41:54;;;;;;;5.80;4.57;;;15.50;27.10;;;;;;4982764;28;20048;-86
2021/09/29 13:44:22;;;;;;;4.95;4.30;;;15.40;27.10;;;;;;4998873;28;20111;-87
2021/09/29 13:46:49;;;;;;;8.63;4.70;;;15.40;27.20;;;;;;4981158;28;20081;-87
2021/09/29 13:49:15;;;;;;;;;;;15.40;27.20;;;;;;4964008;28;20033;-87
2021/09/29 13:51:46;;;;;;;6.10;4.57;;;15.40;27.20;;;;;;4964509;28;19990;-85
2021/09/29 13:54:31;;;;;;;8.10;4.45;;;15.40;27.20;;;;;;4965573;28;20539;-86
2021/09/29 13:59:42;;;;;;;4.70;4.28;;;15.30;27.50;;;;;;4980021;28;20034;-86
2021/09/29 14:02:29;;;;;;;10.18;4.53;;;15.30;27.60;;;;;;4981461;28;20041;-85
2021/09/29 14:29:53;;;;;;;10.75;5.60;;;15.10;28.30;;;;;;4955019;28;20479;-86
2021/09/29 14:32:28;;;;;;;8.45;6.38;;;15.10;28.60;;;;;;4919787;28;20548;-85
2021/09/29 14:34:55;;;;;;;13.75;6.05;;;15.00;28.60;;;;;;4952180;28;20060;-83
2021/09/29 14:37:21;;;;;;;14.05;6.40;;;15.00;28.80;;;;;;4932354;28;20546;-85
2021/09/29 14:39:48;;;;;;;12.65;6.85;;;15.00;29.10;;;;;;4980294;28;20143;-86
2021/09/29 14:42:14;;;;;;;11.63;6.97;;;15.00;29.10;;;;;;4948160;28;20033;-84
2021/09/29 14:44:40;;;;;;;9.90;6.03;;;14.90;29.10;;;;;;4964140;28;20041;-86
2021/09/29 14:47:11;;;;;;;8.90;6.78;;;14.90;29.20;;;;;;4979811;28;20049;-88
2021/09/29 14:49:42;;;;;;;15.50;10.02;;;14.80;29.40;;;;;;4949146;28;21171;-85
2021/09/29 14:52:09;;;;;;;11.93;7.90;;;14.80;29.40;;;;;;4978122;28;20112;-85
2021/09/29 14:54:36;;;;;;;14.20;7.55;;;14.80;29.50;;;;;;4979784;28;20053;-85
2021/09/29 14:57:09;;;;;;;13.07;7.13;;;14.70;29.60;;;;;;4932356;28;20556;-87
2021/09/29 14:59:41;;;;;;;11.52;7.30;;;14.70;29.70;;;;;;4956403;28;20493;-83
2021/09/29 15:02:08;;;;;;;12.90;7.18;;;14.70;29.60;;;;;;4949420;28;20042;-84
2021/09/29 15:04:34;;;;;;;13.25;7.13;;;14.70;29.60;;;;;;4979443;28;20069;-85
2021/09/29 15:07:01;;;;;;;14.35;7.35;;;14.60;29.80;;;;;;4978413;28;20144;-87
2021/09/29 15:09:27;;;;;;;;;;;14.60;29.90;;;;;;4950253;28;20041;-86
2021/09/29 15:11:53;;;;;;;;;;;14.50;29.70;;;;;;4982590;28;19929;-85
2021/09/29 15:17:11;;;;;;;10.15;7.50;;;14.50;29.90;;;;;;4961914;28;20053;-85
2021/09/29 15:19:46;;;;;;;11.30;6.72;;;14.30;30.30;;;;;;4966185;28;20424;-84
2021/09/29 15:30:45;;;;;;;10.38;6.60;;;13.90;31.90;;;;;;4985129;28;20064;-86
2021/09/29 15:47:03;;;;;;;40.20;8.77;;;13.30;34.10;;;;;;4963762;28;20038;-88
2021/09/29 15:52:06;;;;;;;32.35;8.30;;;13.20;34.70;;;;;;4951928;28;20119;-86
2021/09/29 15:57:17;;;;;;;36.22;8.43;;;13.00;35.10;;;;;;4950052;28;20057;-88
2021/09/29 16:02:30;;;;;;;38.33;9.00;;;12.80;36.20;;;;;;4981815;28;20053;-88
2021/09/29 16:08:01;;;;;;;50.65;9.60;;;12.70;36.80;;;;;;4966510;28;20041;-87
2021/09/29 16:10:55;;;;;;;41.83;8.20;;;12.60;37.00;;;;;;4945138;28;20043;-87
2021/09/29 16:16:07;;;;;;;33.88;7.30;;;12.60;37.30;;;;;;4948519;28;20034;-87
2021/09/29 16:31:46;;;;;;;34.78;7.63;;;12.30;38.40;;;;;;4970437;28;20056;-86
2021/09/29 16:34:19;;;;;;;27.70;8.13;;;12.30;38.50;;;;;;4968252;28;20116;-84
2021/09/29 16:36:46;;;;;;;31.98;8.80;;;12.30;38.90;;;;;;4980576;28;20042;-84
2021/09/29 16:39:13;;;;;;;;;;;12.30;39.20;;;;;;4963549;28;20048;-87
2021/09/29 16:41:47;;;;;;;29.23;7.70;;;12.30;39.20;;;;;;4946738;28;20015;-90
2021/09/29 16:44:20;;;;;;;30.55;7.07;;;12.20;39.10;;;;;;4979995;28;20056;-86
2021/09/29 16:46:52;;;;;;;29.77;7.68;;;12.20;39.20;;;;;;4981912;28;20037;-87
2021/09/29 16:49:31;;;;;;;28.02;7.70;;;12.20;39.50;;;;;;4966778;28;20034;-89
2021/09/29 16:52:07;;;;;;;38.53;8.43;;;12.30;39.70;;;;;;5013094;28;20045;-89
2021/09/29 16:54:42;;;;;;;27.80;7.88;;;12.30;39.60;;;;;;4977513;28;20037;-87
2021/09/29 16:57:19;;;;;;;28.50;7.68;;;12.30;39.70;;;;;;4996843;28;20497;-87
2021/09/29 17:00:28;;;;;;;40.25;8.85;;;12.30;39.80;;;;;;4964554;28;20052;-86
2021/09/29 17:03:01;;;;;;;38.17;8.10;;;12.40;40.00;;;;;;4981086;28;20555;-86
2021/09/29 17:05:34;;;;;;;38.53;8.23;;;12.50;39.80;;;;;;4947201;28;20053;-85
2021/09/29 17:08:08;;;;;;;28.85;8.02;;;12.50;39.80;;;;;;4979601;28;20088;-86
2021/09/29 17:10:40;;;;;;;32.03;9.80;;;12.50;40.00;;;;;;4979287;28;20041;-88
2021/09/29 17:13:18;;;;;;;31.38;8.02;;;12.50;40.30;;;;;;4978260;28;20508;-86
2021/09/29 17:15:57;;;;;;;40.10;7.80;;;12.50;40.60;;;;;;4982053;28;20048;-86
2021/09/29 17:18:27;;;;;;;32.70;8.32;;;12.50;40.70;;;;;;4980694;28;20560;-85
2021/09/29 17:20:58;;;;;;;34.55;8.07;;;12.50;40.60;;;;;;4948775;28;20095;-87
2021/09/29 17:23:34;;;;;;;24.80;7.53;;;12.50;40.60;;;;;;4962748;28;20042;-89
2021/09/29 17:26:14;;;;;;;23.33;7.47;;;12.50;40.60;;;;;;4964586;28;20092;-87
2021/09/29 17:28:51;;;;;;;30.27;7.70;;;12.40;40.70;;;;;;4981306;28;20133;-87
2021/09/29 17:31:24;;;;;;;30.17;7.68;;;12.40;40.70;;;;;;4977873;28;20170;-86
2021/09/29 17:33:57;;;;;;;27.05;7.88;;;12.40;40.70;;;;;;4958728;28;20041;-87
2021/09/29 17:36:50;;;;;;;31.75;8.27;;;12.30;40.70;;;;;;4949253;28;20042;-89
2021/09/29 17:53:45;;;;;;;28.02;7.65;;;12.00;41.70;;;;;;4944991;28;20042;-86
2021/09/29 17:56:37;;;;;;;30.73;7.72;;;12.00;41.80;;;;;;4944558;28;20052;-88
2021/09/29 17:59:04;;;;;;;32.47;8.80;;;12.10;42.30;;;;;;4911980;28;20553;-87
2021/09/29 18:01:45;;;;;;;38.17;8.73;;;12.10;41.90;;;;;;4910598;28;20155;-87
2021/09/29 18:04:24;;;;;;;27.27;8.23;;;12.20;42.30;;;;;;4944523;28;20041;-87
2021/09/29 18:09:40;;;;;;;25.85;8.13;;;12.20;42.20;;;;;;5015352;28;20079;-87
2021/09/29 18:12:13;;;;;;;28.23;7.60;;;12.30;42.30;;;;;;4966435;28;20044;-86
2021/09/29 18:15:04;;;;;;;25.23;8.50;;;12.20;42.10;;;;;;4965288;28;20044;-87
2021/09/29 18:17:39;;;;;;;32.45;9.32;;;12.20;42.50;;;;;;4982382;28;20044;-87
2021/09/29 18:20:20;;;;;;;27.92;8.00;;;12.20;42.30;;;;;;4981557;28;20060;-88
2021/09/29 18:22:51;;;;;;;30.52;8.55;;;12.20;42.30;;;;;;4978434;28;20042;-87
2021/09/29 18:25:29;;;;;;;28.85;8.55;;;12.20;42.20;;;;;;4979380;28;20432;-86
2021/09/29 18:28:10;;;;;;;30.90;8.65;;;12.20;42.30;;;;;;4981246;28;20037;-86
2021/09/29 18:30:51;;;;;;;29.15;8.95;;;12.20;42.40;;;;;;4981610;28;20037;-87
2021/09/29 18:33:30;;;;;;;27.35;8.77;;;12.20;42.30;;;;;;4983781;28;20112;-87
2021/09/29 18:36:14;;;;;;;33.92;9.10;;;12.20;42.40;;;;;;4966449;28;20037;-86
2021/09/29 18:38:48;;;;;;;23.65;8.27;;;12.20;42.40;;;;;;4968016;28;20398;-86
2021/09/29 18:41:22;;;;;;;22.75;7.82;;;12.10;43.80;;;;;;4983314;28;20034;-86
2021/09/29 18:43:57;;;;;;;27.05;7.95;;;11.90;42.70;;;;;;4983612;28;20045;-86
2021/09/29 18:46:35;;;;;;;26.02;8.15;;;11.80;42.80;;;;;;4981403;28;20057;-87
2021/09/29 18:49:15;;;;;;;25.38;9.23;;;11.80;43.10;;;;;;4950801;28;20087;-86
2021/09/29 18:52:22;;;;;;;23.58;7.75;;;11.70;43.20;;;;;;4969088;28;20042;-86
2021/09/29 19:08:22;;;;;;;22.08;8.07;;;11.60;44.20;;;;;;4967174;28;20524;-87
2021/09/29 19:10:49;;;;;;;28.30;8.77;;;11.60;44.40;;;;;;4966035;28;20104;-86
2021/09/29 19:13:20;;;;;;;24.30;8.15;;;11.60;44.70;;;;;;4964670;28;20594;-87
2021/09/29 19:15:46;;;;;;;25.60;8.43;;;11.60;44.80;;;;;;4950628;28;20091;-87
2021/09/29 19:18:12;;;;;;;26.90;8.85;;;11.60;44.90;;;;;;4964274;28;20038;-86
2021/09/29 19:20:39;;;;;;;32.55;9.68;;;11.60;44.90;;;;;;4963988;28;20176;-86
2021/09/29 19:23:08;;;;;;;26.20;8.85;;;11.60;44.80;;;;;;4948202;28;20536;-86
2021/09/29 19:25:35;;;;;;;17.52;9.57;;;11.60;44.80;;;;;;4964633;28;20571;-87
2021/09/29 19:28:04;;;;;;;20.27;8.65;;;11.50;44.80;;;;;;4949464;28;20044;-86
2021/09/29 19:30:30;;;;;;;18.83;9.07;;;11.50;44.80;;;;;;4964085;28;20051;-86
2021/09/29 19:32:58;;;;;;;21.70;8.23;;;11.40;45.00;;;;;;4963805;28;20044;-87
2021/09/29 19:35:25;;;;;;;21.70;8.75;;;11.40;45.10;;;;;;4964105;28;20037;-84
2021/09/29 19:37:51;;;;;;;;;;;11.40;45.30;;;;;;4948327;28;20049;-85
2021/09/29 19:40:18;;;;;;;;;;;11.40;45.30;;;;;;4964037;28;19964;-86
2021/09/29 19:42:45;;;;;;;20.38;8.43;;;11.40;44.80;;;;;;4963431;28;20404;-85
2021/09/29 19:45:12;;;;;;;25.20;8.90;;;11.40;44.60;;;;;;4948116;28;20041;-88
2021/09/29 20:08:53;;;;;;;21.73;9.65;;;11.50;46.10;;;;;;4980017;28;20651;-85
2021/09/29 20:11:20;;;;;;;16.55;8.98;;;11.50;46.10;;;;;;4947984;28;20037;-85
2021/09/29 20:13:46;;;;;;;30.92;9.52;;;11.60;46.20;;;;;;4962642;28;20544;-86
2021/09/29 20:16:13;;;;;;;22.63;9.40;;;11.60;46.20;;;;;;4979887;28;20037;-85
2021/09/29 20:18:47;;;;;;;19.83;9.13;;;11.70;46.10;;;;;;4948223;28;20064;-84
2021/09/29 20:21:14;;;;;;;24.35;9.20;;;11.70;46.20;;;;;;4979860;28;20029;-86
2021/09/29 20:23:40;;;;;;;19.75;8.80;;;11.70;46.10;;;;;;4962643;28;20048;-87
2021/09/29 20:26:07;;;;;;;17.73;9.15;;;11.70;46.20;;;;;;4949690;28;20049;-86
2021/09/29 20:28:33;;;;;;;;;;;11.80;46.20;;;;;;4963170;28;20117;-85
2021/09/29 20:31:00;;;;;;;18.15;8.60;;;11.80;46.20;;;;;;4962284;28;19976;-87
2021/09/29 20:44:27;;;;;;;13.43;8.20;;;11.80;45.90;;;;;;4899757;29;20057;-84
2021/09/29 20:46:54;;;;;;;20.48;8.85;;;11.80;45.90;;;;;;4895550;29;20043;-86
2021/09/29 20:49:20;;;;;;;21.15;8.80;;;11.80;46.10;;;;;;4908266;28;20129;-86
2021/09/29 20:51:46;;;;;;;21.42;8.63;;;11.80;46.10;;;;;;4963214;28;20052;-90
2021/09/29 20:54:16;;;;;;;26.38;9.20;;;11.80;46.20;;;;;;4933665;28;20041;-87
2021/09/29 20:56:43;;;;;;;24.08;9.40;;;11.70;46.20;;;;;;4966696;28;20037;-87
2021/09/29 20:59:09;;;;;;;20.02;9.05;;;11.70;46.40;;;;;;4934931;28;20532;-87
2021/09/29 21:01:35;;;;;;;23.08;8.55;;;11.70;46.40;;;;;;4982594;28;20054;-86
2021/09/29 21:04:02;;;;;;;17.38;8.10;;;11.70;46.50;;;;;;4963414;28;20041;-85
2021/09/29 21:06:30;;;;;;;28.75;9.93;;;11.70;46.60;;;;;;4971068;28;20049;-85
2021/09/29 21:09:07;;;;;;;29.52;9.43;;;11.70;46.60;;;;;;4946993;28;20037;-89
2021/09/29 21:11:47;;;;;;;34.85;10.32;;;11.70;46.60;;;;;;4981962;28;20038;-84
2021/09/29 21:14:18;;;;;;;27.35;10.50;;;11.80;47.90;;;;;;4952627;28;20047;-84
2021/09/29 21:19:29;;;;;;;25.90;10.60;;;11.80;46.60;;;;;;4953786;28;20045;-88
2021/09/29 21:21:55;;;;;;;32.30;11.07;;;11.80;46.70;;;;;;4961908;28;20045;-85
2021/09/29 21:24:22;;;;;;;25.23;10.15;;;11.70;46.60;;;;;;4962950;28;20037;-87
2021/09/29 21:26:49;;;;;;;18.00;9.20;;;11.70;46.80;;;;;;4964671;28;20046;-87
2021/09/29 21:29:15;;;;;;;18.42;8.98;;;11.70;46.90;;;;;;4981820;28;20117;-85
2021/09/29 21:31:41;;;;;;;18.92;9.80;;;11.70;46.90;;;;;;4966179;28;20041;-85
2021/09/29 21:34:08;;;;;;;18.98;9.15;;;11.70;47.10;;;;;;4966246;28;20092;-83
2021/09/29 21:36:37;;;;;;;22.15;9.85;;;11.80;47.10;;;;;;4966498;28;20052;-84
2021/09/29 21:39:13;;;;;;;19.80;9.45;;;11.80;47.20;;;;;;4967689;28;20495;-86
2021/09/29 22:03:15;;;;;;;17.27;8.93;;;11.90;47.60;;;;;;4982629;28;20048;-85
2021/09/29 22:33:29;;;;;;;15.45;9.10;;;12.30;47.60;;;;;;4983535;28;20056;-85
2021/09/29 23:08:34;;;;;;;17.60;10.95;;;12.40;48.30;;;;;;4966761;28;20675;-86
2021/09/29 23:34:53;;;;;;;18.73;10.55;;;12.00;48.40;;;;;;4971319;28;20038;-83
2021/09/29 23:37:20;;;;;;;14.23;9.48;;;11.90;48.50;;;;;;4971204;28;20112;-83
2021/09/29 23:39:46;;;;;;;19.52;10.32;;;11.80;48.50;;;;;;4951769;28;20128;-83
2021/09/29 23:42:13;;;;;;;15.75;10.48;;;11.70;48.70;;;;;;4934654;28;20034;-86
2021/09/29 23:44:39;;;;;;;16.20;10.60;;;11.60;49.00;;;;;;4949308;28;20405;-83
2021/09/29 23:47:06;;;;;;;16.20;9.90;;;11.50;49.30;;;;;;4949696;28;20045;-84
2021/09/29 23:49:32;;;;;;;17.52;10.15;;;11.40;49.40;;;;;;4980457;28;20140;-85
2021/09/29 23:51:58;;;;;;;19.70;11.25;;;11.30;49.60;;;;;;4933636;28;20524;-85
2021/09/29 23:54:26;;;;;;;14.45;10.55;;;11.20;49.90;;;;;;4964249;28;20064;-85
2021/09/29 23:56:52;;;;;;;18.30;10.48;;;11.10;50.10;;;;;;4932870;28;20041;-86
2021/09/29 23:59:18;;;;;;;17.33;10.77;;;11.00;50.40;;;;;;4948154;28;20053;-85
